Time;durP1;ratioP1;P1;durP2;ratioP2;P2;SDS_P1;SDS_P2;PMS_P1;PMS_P2;Temp;Humidity;BMP_temperature;BMP_pressure;BME280_temperature;BME280_humidity;BME280_pressure;Samples;Min_cycle;Max_cycle;Signal;HPM_P1;HPM_P2
2021/12/19 00:00:09;;;;;;;7.68;5.47;;;;;;;5.36;100.00;100355.25;5050473;28;20051;-80
2021/12/19 00:10:43;;;;;;;6.05;4.50;;;;;;;5.42;100.00;100350.84;5051675;28;20167;-80
2021/12/19 00:13:09;;;;;;;6.60;4.78;;;;;;;5.42;100.00;100334.50;5050333;28;20505;-80
2021/12/19 00:15:35;;;;;;;7.03;4.90;;;;;;;5.42;100.00;100330.19;5050423;28;20059;-80
2021/12/19 00:18:00;;;;;;;6.63;4.90;;;;;;;5.48;100.00;100335.28;5051450;28;20022;-79
2021/12/19 00:20:25;;;;;;;5.68;4.90;;;;;;;5.39;100.00;100319.03;5050354;28;20392;-80
2021/12/19 00:22:51;;;;;;;6.45;4.97;;;;;;;5.47;100.00;100330.09;5051567;28;20485;-80
2021/12/19 00:25:16;;;;;;;6.68;4.30;;;;;;;5.37;100.00;100300.97;5050521;28;20036;-80
2021/12/19 00:27:41;;;;;;;5.32;4.55;;;;;;;5.50;100.00;100318.00;5051991;28;20031;-80
2021/12/19 00:30:07;;;;;;;5.38;4.65;;;;;;;5.41;100.00;100299.22;5051308;28;20021;-80
2021/12/19 00:32:33;;;;;;;5.90;4.95;;;;;;;5.49;100.00;100313.72;5051471;28;20025;-80
2021/12/19 00:34:58;;;;;;;5.35;4.25;;;;;;;5.49;100.00;100303.38;5051365;28;20032;-80
2021/12/19 00:37:24;;;;;;;6.43;4.65;;;;;;;5.49;100.00;100292.19;5051506;28;20392;-80
2021/12/19 00:39:49;;;;;;;6.22;4.80;;;;;;;5.48;100.00;100291.34;5051381;28;20033;-80
2021/12/19 00:42:30;;;;;;;6.07;4.78;;;;;;;5.53;100.00;100303.34;5050166;28;20086;-79
2021/12/19 00:45:00;;;;;;;8.35;4.80;;;;;;;5.45;100.00;100281.06;5051788;28;20052;-80
2021/12/19 00:47:26;;;;;;;6.47;5.18;;;;;;;5.56;100.00;100285.19;5055367;28;20029;-80
2021/12/19 00:49:51;;;;;;;5.88;4.60;;;;;;;5.55;100.00;100291.25;5054687;28;20045;-80
2021/12/19 00:52:17;;;;;;;6.10;4.47;;;;;;;5.45;100.00;100282.78;5055446;28;20021;-80
2021/12/19 00:54:42;;;;;;;6.63;4.82;;;;;;;5.41;100.00;100266.47;5055671;28;20029;-80
2021/12/19 00:57:07;;;;;;;6.03;4.72;;;;;;;5.55;100.00;100280.91;5053749;28;20111;-79
2021/12/19 00:59:33;;;;;;;7.47;4.78;;;;;;;5.57;100.00;100274.84;5053809;28;20024;-80
2021/12/19 01:01:58;;;;;;;7.45;5.20;;;;;;;5.61;100.00;100273.06;5054842;28;20099;-80
2021/12/19 01:04:25;;;;;;;7.55;5.10;;;;;;;5.59;100.00;100265.31;5055002;28;20400;-80
2021/12/19 01:06:50;;;;;;;9.25;5.47;;;;;;;5.61;100.00;100266.16;5054907;28;20028;-80
2021/12/19 01:09:16;;;;;;;7.15;4.80;;;;;;;5.55;100.00;100234.41;5055398;28;20037;-80
2021/12/19 01:11:46;;;;;;;10.38;6.03;;;;;;;5.57;100.00;100227.50;5053623;28;20029;-80
2021/12/19 01:14:12;;;;;;;8.77;6.07;;;;;;;5.68;100.00;100241.91;5054821;28;20029;-80
2021/12/19 01:16:37;;;;;;;9.63;5.20;;;;;;;5.62;100.00;100231.69;5054723;28;20028;-80
2021/12/19 01:19:03;;;;;;;7.10;5.72;;;;;;;5.68;100.00;100238.47;5054671;28;20037;-80
2021/12/19 01:21:28;;;;;;;11.35;5.82;;;;;;;5.66;100.00;100229.91;5053523;28;20053;-80
2021/12/19 01:23:54;;;;;;;6.13;5.53;;;;;;;5.68;100.00;100234.16;5053212;28;20397;-79
2021/12/19 01:26:19;;;;;;;6.00;5.07;;;;;;;5.57;100.00;100212.84;5053398;28;20063;-80
2021/12/19 01:28:45;;;;;;;7.47;5.88;;;;;;;5.61;100.00;100213.63;5053214;28;20065;-80
2021/12/19 01:31:11;;;;;;;10.07;6.70;;;;;;;5.60;100.00;100206.75;5054202;28;20075;-80
2021/12/19 01:33:37;;;;;;;8.25;5.97;;;;;;;5.70;100.00;100221.22;5054542;28;20033;-80
2021/12/19 01:36:03;;;;;;;7.53;5.43;;;;;;;5.69;100.00;100222.97;5054334;28;20036;-80
2021/12/19 01:38:30;;;;;;;6.43;5.28;;;;;;;5.71;100.00;100230.66;5054551;28;20467;-80
2021/12/19 01:40:55;;;;;;;7.93;5.72;;;;;;;5.72;100.00;100211.69;5054342;28;20075;-81
2021/12/19 01:43:24;;;;;;;6.53;5.53;;;;;;;5.68;100.00;100212.63;5054440;28;20056;-80
2021/12/19 01:45:50;;;;;;;7.35;5.53;;;;;;;5.73;100.00;100210.81;5054231;28;20079;-80
2021/12/19 01:48:16;;;;;;;12.20;6.25;;;;;;;5.69;100.00;100199.69;5053987;28;20539;-80
2021/12/19 01:50:42;;;;;;;8.60;6.20;;;;;;;5.78;100.00;100201.25;5054031;28;20045;-80
2021/12/19 01:53:11;;;;;;;9.02;5.75;;;;;;;5.64;100.00;100157.56;5052611;28;20024;-80
2021/12/19 01:55:37;;;;;;;7.07;5.75;;;;;;;5.78;100.00;100172.84;5052897;28;20029;-80
2021/12/19 01:58:03;;;;;;;10.23;6.35;;;;;;;5.78;100.00;100171.97;5052923;28;20025;-80
2021/12/19 02:00:35;;;;;;;8.48;6.10;;;;;;;5.81;100.00;100174.50;5054183;28;20095;-80
2021/12/19 02:03:01;;;;;;;9.38;6.05;;;;;;;5.69;100.00;100153.19;5053908;28;20094;-81
2021/12/19 02:05:27;;;;;;;10.25;6.85;;;;;;;5.81;100.00;100156.38;5053887;28;20058;-81
2021/12/19 02:07:54;;;;;;;10.98;6.97;;;;;;;5.80;100.00;100150.38;5053709;28;20025;-80
2021/12/19 02:10:23;;;;;;;11.35;6.68;;;;;;;5.75;100.00;100140.13;5053872;28;20044;-80
2021/12/19 02:12:50;;;;;;;8.77;6.97;;;;;;;5.85;100.00;100145.97;5053739;28;20029;-80
2021/12/19 02:15:19;;;;;;;9.60;7.35;;;;;;;5.75;100.00;100127.19;5053396;28;20036;-80
2021/12/19 02:17:45;;;;;;;9.07;6.70;;;;;;;5.75;100.00;100116.03;5052463;28;20017;-80
2021/12/19 02:20:13;;;;;;;10.70;6.72;;;;;;;5.89;100.00;100136.41;5053568;28;20037;-79
2021/12/19 02:22:39;;;;;;;14.40;7.78;;;;;;;5.88;100.00;100132.97;5053902;28;20035;-79
2021/12/19 02:25:05;;;;;;;12.10;7.65;;;;;;;5.86;100.00;100111.50;5053267;28;20029;-79
2021/12/19 02:27:30;;;;;;;11.82;8.18;;;;;;;5.84;100.00;100099.47;5052187;28;20017;-79
2021/12/19 02:29:56;;;;;;;12.13;8.40;;;;;;;5.80;100.00;100082.31;5053260;28;20044;-80
2021/12/19 02:32:24;;;;;;;11.48;8.55;;;;;;;5.82;100.00;100086.59;5053490;28;20033;-80
2021/12/19 02:34:51;;;;;;;11.40;7.97;;;;;;;5.92;100.00;100095.03;5052082;28;20396;-80
2021/12/19 02:38:14;;;;;;;12.93;8.35;;;;;;;5.84;100.00;100071.03;5053123;28;20120;-79
2021/12/19 02:48:18;;;;;;;12.75;8.80;;;;;;;5.92;100.00;100079.53;5053067;28;20052;-80
2021/12/19 02:50:52;;;;;;;16.08;8.18;;;;;;;5.91;100.00;100070.88;5051352;28;20049;-80
2021/12/19 02:53:44;;;;;;;11.32;8.15;;;;;;;5.97;100.00;100063.03;5052903;28;20029;-79
2021/12/19 02:56:11;;;;;;;11.98;8.13;;;;;;;5.92;100.00;100054.53;5052835;28;20521;-79
2021/12/19 02:58:40;;;;;;;10.00;7.78;;;;;;;5.87;100.00;100032.22;5052878;28;20032;-79
2021/12/19 03:01:10;;;;;;;10.50;8.00;;;;;;;5.98;100.00;100046.66;5052634;28;20032;-79
2021/12/19 03:03:36;;;;;;;11.05;7.82;;;;;;;5.86;100.00;100028.78;5053093;28;20079;-79
2021/12/19 03:06:01;;;;;;;11.68;7.78;;;;;;;5.92;100.00;100036.41;5053035;28;20499;-79
2021/12/19 03:08:28;;;;;;;12.93;7.95;;;;;;;5.80;100.00;100005.63;5051428;28;20021;-79
2021/12/19 03:17:57;;;;;;;12.27;7.55;;;;;;;6.02;100.00;100031.03;5052595;28;20039;-79
2021/12/19 03:19:06;;;;;;;13.38;7.55;;;;;;;5.98;100.00;100019.91;5052478;28;20064;-79
2021/12/19 03:21:32;;;;;;;9.93;7.35;;;;;;;5.90;100.00;100007.16;5052387;28;20480;-79
2021/12/19 03:23:57;;;;;;;9.95;7.38;;;;;;;5.99;100.00;100006.97;5052016;28;20064;-79
2021/12/19 03:26:23;;;;;;;10.43;7.22;;;;;;;5.88;100.00;99995.97;5052722;28;20033;-79
2021/12/19 03:28:48;;;;;;;12.20;6.85;;;;;;;5.95;100.00;100001.91;5051157;28;20064;-79
2021/12/19 03:31:14;;;;;;;14.45;7.97;;;;;;;6.00;100.00;100010.41;5052051;28;20029;-80
2021/12/19 03:33:39;;;;;;;10.77;8.02;;;;;;;5.99;100.00;99996.63;5052381;28;20437;-80
2021/12/19 03:36:06;;;;;;;11.98;7.47;;;;;;;5.92;100.00;99983.88;5050720;28;20025;-80
2021/12/19 03:38:38;;;;;;;12.50;6.55;;;;;;;5.92;100.00;99963.19;5050888;28;20017;-80
2021/12/19 03:41:20;;;;;;;12.82;6.88;;;;;;;5.95;100.00;99958.81;5050907;28;20033;-80
2021/12/19 03:43:46;;;;;;;11.65;7.35;;;;;;;5.95;100.00;99960.53;5050926;28;20025;-80
2021/12/19 03:46:12;;;;;;;12.18;7.70;;;;;;;5.99;100.00;99967.34;5050583;28;20126;-80
2021/12/19 03:48:37;;;;;;;13.25;6.90;;;;;;;5.99;100.00;99975.94;5052318;28;20100;-79
2021/12/19 03:51:03;;;;;;;14.00;7.95;;;;;;;5.94;100.00;99962.28;5051422;28;20198;-79
2021/12/19 03:53:28;;;;;;;11.63;6.95;;;;;;;5.94;100.00;99958.81;5050765;28;20124;-80
2021/12/19 03:55:54;;;;;;;8.85;6.70;;;;;;;6.00;100.00;99966.44;5050683;28;20025;-79
2021/12/19 03:58:20;;;;;;;11.07;6.72;;;;;;;5.84;100.00;99940.06;5050349;28;20043;-79
2021/12/19 04:00:48;;;;;;;12.68;6.57;;;;;;;5.93;100.00;99954.53;5051892;28;20025;-79
2021/12/19 04:03:20;;;;;;;14.90;7.43;;;;;;;5.93;100.00;99955.38;5050557;28;20052;-79
2021/12/19 04:05:50;;;;;;;14.82;6.88;;;;;;;5.86;100.00;99937.47;5051707;28;20029;-80
2021/12/19 04:08:16;;;;;;;13.10;6.95;;;;;;;5.80;100.00;99941.00;5051708;28;20028;-80
2021/12/19 04:10:42;;;;;;;10.95;6.50;;;;;;;5.81;100.00;99928.94;5051746;28;20029;-80
2021/12/19 04:13:08;;;;;;;13.63;7.18;;;;;;;5.87;100.00;99937.41;5051571;28;20021;-79
2021/12/19 04:15:34;;;;;;;14.32;6.80;;;;;;;5.81;100.00;99918.59;5050399;28;20528;-79
2021/12/19 04:18:00;;;;;;;14.93;7.03;;;;;;;5.93;100.00;99960.56;5050195;28;20025;-80
2021/12/19 04:20:25;;;;;;;10.38;6.95;;;;;;;5.83;100.00;99929.75;5068292;28;20395;-79
2021/12/19 04:22:52;;;;;;;9.55;6.43;;;;;;;5.91;100.00;99957.13;5055954;28;20028;-79
2021/12/19 04:25:18;;;;;;;11.88;7.00;;;;;;;5.80;100.00;99941.00;5055874;28;20329;-79
2021/12/19 04:27:44;;;;;;;9.55;6.15;;;;;;;5.79;100.00;99936.72;5055706;28;20036;-79
2021/12/19 04:30:22;;;;;;;12.50;6.28;;;;;;;5.89;100.00;99951.13;5055358;28;20036;-79
2021/12/19 04:33:00;;;;;;;9.45;6.40;;;;;;;5.88;100.00;99946.84;5055639;28;20017;-81
2021/12/19 04:35:31;;;;;;;8.65;6.03;;;;;;;5.83;100.00;99933.19;5055605;28;20021;-80
2021/12/19 05:15:16;;;;;;;11.90;6.13;;;;;;;5.90;100.00;99941.66;5054863;28;20036;-80
2021/12/19 05:17:42;;;;;;;8.95;5.97;;;;;;;5.82;100.00;99921.16;5053416;28;20029;-79
2021/12/19 05:22:38;;;;;;;13.82;6.93;;;;;;;5.85;100.00;99926.25;5054598;28;20110;-80
2021/12/19 05:25:14;;;;;;;10.00;5.60;;;;;;;5.80;100.00;99920.34;5054404;28;20566;-79
2021/12/19 05:27:51;;;;;;;7.35;5.03;;;;;;;5.84;100.00;99929.72;5054774;28;20029;-79
2021/12/19 05:30:17;;;;;;;9.77;6.10;;;;;;;5.90;100.00;99939.94;5054318;28;20151;-79
2021/12/19 05:32:43;;;;;;;11.20;5.85;;;;;;;5.90;100.00;99933.88;5053194;28;20115;-79
2021/12/19 05:35:10;;;;;;;13.68;6.25;;;;;;;5.94;100.00;99928.66;5054202;28;20103;-79
2021/12/19 05:45:49;;;;;;;6.90;5.57;;;;;;;5.89;100.00;99924.44;5054448;28;20047;-79
2021/12/19 05:48:14;;;;;;;9.50;5.32;;;;;;;5.90;100.00;99921.84;5053884;28;20033;-79
2021/12/19 05:50:40;;;;;;;8.55;5.43;;;;;;;5.91;100.00;99917.50;5053951;28;20109;-80
2021/12/19 05:53:06;;;;;;;11.38;6.25;;;;;;;5.94;100.00;99925.22;5054234;28;20123;-80
2021/12/19 05:55:31;;;;;;;9.10;5.65;;;;;;;5.91;100.00;99912.34;5053924;28;20127;-80
2021/12/19 05:57:57;;;;;;;8.90;5.85;;;;;;;5.92;100.00;99911.47;5053966;28;20033;-82
2021/12/19 06:00:22;;;;;;;8.55;5.80;;;;;;;5.90;100.00;99913.19;5053745;28;20025;-82
2021/12/19 06:02:48;;;;;;;10.32;5.78;;;;;;;5.89;100.00;99911.50;5052953;28;20091;-83
2021/12/19 06:05:14;;;;;;;9.77;5.65;;;;;;;5.94;100.00;99908.00;5052676;28;20085;-90
2021/12/19 06:07:41;;;;;;;7.53;5.53;;;;;;;5.88;100.00;99909.81;5052926;28;20060;-81
2021/12/19 06:10:07;;;;;;;11.13;6.28;;;;;;;5.94;100.00;99909.69;5053746;28;20040;-84
2021/12/19 06:12:32;;;;;;;10.27;6.05;;;;;;;5.91;100.00;99905.44;5052281;28;20032;-87
2021/12/19 06:14:58;;;;;;;7.75;5.60;;;;;;;5.73;100.00;99872.25;5052382;28;20021;-85
2021/12/19 06:17:24;;;;;;;12.07;6.63;;;;;;;5.85;100.00;99896.97;5052218;28;20488;-84
2021/12/19 06:19:49;;;;;;;11.50;5.50;;;;;;;5.88;100.00;99918.41;5052436;28;20021;-80
2021/12/19 06:22:14;;;;;;;13.02;5.88;;;;;;;5.85;100.00;99905.56;5052211;28;20135;-86
2021/12/19 06:24:40;;;;;;;8.70;5.07;;;;;;;5.87;100.00;99898.63;5052241;28;20099;-89
2021/12/19 06:27:05;;;;;;;10.00;5.50;;;;;;;5.87;100.00;99897.78;5053571;28;20060;-88
2021/12/19 06:29:32;;;;;;;8.82;4.50;;;;;;;5.81;100.00;99896.19;5052028;28;20029;-88
2021/12/19 06:31:57;;;;;;;9.48;5.57;;;;;;;5.87;100.00;99896.06;5052285;28;20025;-89
2021/12/19 06:34:23;;;;;;;12.45;5.30;;;;;;;5.81;100.00;99882.41;5052240;28;20028;-89
2021/12/19 06:36:51;;;;;;;7.60;5.15;;;;;;;5.87;100.00;99872.78;5052322;28;20033;-88
2021/12/19 06:39:20;;;;;;;8.43;5.25;;;;;;;5.70;100.00;99837.00;5053074;28;20078;-88
2021/12/19 06:41:46;;;;;;;7.00;5.10;;;;;;;5.85;100.00;99863.34;5051941;28;20033;-88
2021/12/19 06:44:11;;;;;;;8.55;4.90;;;;;;;5.86;100.00;99873.69;5051484;28;20598;-88
2021/12/19 06:46:37;;;;;;;8.18;5.60;;;;;;;5.76;100.00;99856.66;5051613;28;20501;-87
2021/12/19 06:49:03;;;;;;;8.82;5.55;;;;;;;5.86;100.00;99876.25;5053197;28;20036;-88
2021/12/19 06:51:31;;;;;;;6.13;3.97;;;;;;;5.85;100.00;99882.28;5051158;28;20045;-87
2021/12/19 06:53:56;;;;;;;10.73;4.60;;;;;;;5.82;100.00;99874.63;5051728;28;20040;-87
2021/12/19 06:56:22;;;;;;;7.00;4.82;;;;;;;5.84;100.00;99862.50;5051413;28;20029;-87
2021/12/19 06:58:47;;;;;;;7.45;4.82;;;;;;;5.79;100.00;99866.94;5051480;28;20036;-87
2021/12/19 07:01:12;;;;;;;8.55;5.10;;;;;;;5.85;100.00;99890.06;5051286;28;20119;-87
2021/12/19 07:03:38;;;;;;;7.03;5.10;;;;;;;5.85;100.00;99874.53;5051684;28;20086;-88
2021/12/19 07:06:03;;;;;;;9.50;5.05;;;;;;;5.83;100.00;99870.31;5052941;28;20033;-88
2021/12/19 07:08:29;;;;;;;7.43;4.45;;;;;;;5.75;100.00;99861.00;5051082;28;20036;-88
2021/12/19 07:10:55;;;;;;;8.00;4.65;;;;;;;5.82;100.00;99876.38;5051410;28;20553;-80
2021/12/19 07:13:21;;;;;;;7.38;4.60;;;;;;;5.79;100.00;99864.38;5051677;28;20120;-87
2021/12/19 07:15:52;;;;;;;8.23;4.35;;;;;;;5.84;100.00;99878.03;5051280;28;20031;-87
2021/12/19 07:18:17;;;;;;;5.20;4.25;;;;;;;5.86;100.00;99870.25;5050744;28;20119;-87
2021/12/19 07:20:43;;;;;;;6.93;4.38;;;;;;;5.66;100.00;99842.28;5050797;28;20754;-86
2021/12/19 07:23:13;;;;;;;7.30;5.03;;;;;;;5.83;100.00;99876.31;5051136;28;20465;-86
2021/12/19 07:25:40;;;;;;;7.40;5.40;;;;;;;5.69;100.00;99837.91;5050998;28;20025;-87
2021/12/19 07:28:06;;;;;;;6.88;4.43;;;;;;;5.71;100.00;99837.84;5069709;28;20043;-87
2021/12/19 07:30:35;;;;;;;6.72;4.65;;;;;;;5.81;100.00;99854.81;5052360;28;20033;-87
2021/12/19 07:33:01;;;;;;;6.60;4.82;;;;;;;5.83;100.00;99858.22;5069481;28;20127;-87
2021/12/19 07:35:27;;;;;;;6.43;4.28;;;;;;;5.76;100.00;99833.41;5052713;28;20115;-85
2021/12/19 07:37:55;;;;;;;6.50;4.43;;;;;;;5.87;100.00;99857.28;5052771;28;20127;-87
2021/12/19 07:40:22;;;;;;;4.88;4.20;;;;;;;5.86;100.00;99849.56;5052623;28;20119;-87
2021/12/19 07:42:48;;;;;;;9.35;4.47;;;;;;;5.89;100.00;99844.31;5052783;28;20040;-87
2021/12/19 07:45:15;;;;;;;7.95;4.43;;;;;;;5.82;100.00;99822.94;5069253;28;20058;-87
2021/12/19 07:47:42;;;;;;;6.00;4.45;;;;;;;5.87;100.00;99843.50;5069384;28;20076;-87
2021/12/19 07:50:11;;;;;;;8.90;4.22;;;;;;;5.91;100.00;99853.72;5052484;28;20067;-87
2021/12/19 07:52:36;;;;;;;6.20;4.55;;;;;;;5.84;100.00;99848.75;5069302;28;20036;-87
2021/12/19 07:55:03;;;;;;;7.43;4.20;;;;;;;5.88;100.00;99858.97;5052023;28;20136;-87
2021/12/19 07:57:29;;;;;;;7.75;4.60;;;;;;;5.86;100.00;99852.16;5052294;28;20036;-87
2021/12/19 07:59:54;;;;;;;6.10;3.95;;;;;;;5.90;100.00;99859.78;5050360;28;20080;-87
2021/12/19 08:02:20;;;;;;;6.97;3.80;;;;;;;5.93;100.00;99853.72;5050354;28;20032;-87
2021/12/19 08:04:46;;;;;;;5.95;3.92;;;;;;;5.88;100.00;99837.44;5050526;28;20025;-86
2021/12/19 08:07:13;;;;;;;7.18;4.50;;;;;;;5.92;100.00;99844.28;5050454;28;20372;-87
2021/12/19 08:09:59;;;;;;;7.80;4.35;;;;;;;5.92;100.00;99836.50;5050122;28;20021;-87
2021/12/19 08:12:25;;;;;;;5.40;4.22;;;;;;;5.91;100.00;99850.31;5051498;28;20048;-87
2021/12/19 08:14:50;;;;;;;7.80;5.20;;;;;;;5.87;100.00;99828.00;5050427;28;20086;-87
2021/12/19 08:17:17;;;;;;;9.43;5.35;;;;;;;5.94;100.00;99833.00;5049853;28;20025;-86
2021/12/19 08:19:43;;;;;;;7.78;4.00;;;;;;;5.96;100.00;99844.16;5050125;28;20116;-87
2021/12/19 08:22:08;;;;;;;6.22;3.92;;;;;;;5.89;100.00;99816.72;5050242;28;20091;-87
2021/12/19 08:24:35;;;;;;;7.75;4.35;;;;;;;5.95;100.00;99826.09;5050060;28;20166;-87
2021/12/19 08:27:00;;;;;;;7.93;4.90;;;;;;;5.99;100.00;99830.31;5048643;28;20041;-87
2021/12/19 08:29:26;;;;;;;8.23;5.35;;;;;;;5.90;100.00;99809.81;5031910;28;20040;-86
2021/12/19 08:31:51;;;;;;;5.53;4.15;;;;;;;5.99;100.00;99822.56;5048785;28;20474;-87
2021/12/19 08:34:16;;;;;;;5.72;4.03;;;;;;;5.82;100.00;99804.84;5048700;28;20025;-87
2021/12/19 08:36:42;;;;;;;8.52;3.90;;;;;;;5.93;100.00;99826.13;5032155;28;20047;-87
2021/12/19 08:39:10;;;;;;;5.85;4.28;;;;;;;5.94;100.00;99832.13;5048669;28;20052;-87
2021/12/19 08:41:36;;;;;;;6.03;4.22;;;;;;;5.92;100.00;99833.94;5048486;28;20504;-87
2021/12/19 08:44:01;;;;;;;7.88;4.30;;;;;;;5.91;100.00;99834.78;5048687;28;20025;-87
2021/12/19 08:46:31;;;;;;;5.72;3.50;;;;;;;5.84;100.00;99821.16;5048528;28;20037;-87
2021/12/19 08:48:59;;;;;;;6.00;4.55;;;;;;;5.76;100.00;99805.81;5059845;28;20166;-85
2021/12/19 08:51:28;;;;;;;5.55;3.97;;;;;;;5.87;100.00;99835.75;5065372;28;20555;-85
2021/12/19 08:53:53;;;;;;;7.65;4.30;;;;;;;5.79;100.00;99822.16;5068555;28;20035;-85
2021/12/19 08:56:19;;;;;;;6.40;4.88;;;;;;;5.83;100.00;99832.38;5079560;28;20031;-85
2021/12/19 08:58:46;;;;;;;6.35;3.97;;;;;;;5.80;100.00;99834.19;5085832;28;20043;-85
2021/12/19 09:01:11;;;;;;;7.75;5.25;;;;;;;5.81;100.00;99835.88;5089990;28;20028;-85
2021/12/19 09:03:56;;;;;;;6.47;4.60;;;;;;;5.76;100.00;99823.91;5088630;28;20054;-85
2021/12/19 09:06:23;;;;;;;6.53;4.43;;;;;;;5.75;100.00;99835.16;5052587;28;20032;-85
2021/12/19 09:08:50;;;;;;;10.80;5.60;;;;;;;5.68;100.00;99806.91;5072296;28;20469;-85
2021/12/19 09:11:16;;;;;;;32.55;15.68;;;;;;;5.76;100.00;99830.81;5072222;28;20115;-85
2021/12/19 09:13:42;;;;;;;23.35;13.10;;;;;;;5.73;100.00;99830.88;5072174;28;20458;-85
2021/12/19 09:16:07;;;;;;;11.05;7.82;;;;;;;5.71;100.00;99832.69;5031927;28;20116;-86
2021/12/19 09:18:34;;;;;;;8.38;6.75;;;;;;;5.74;100.00;99832.63;5031623;28;20103;-85
2021/12/19 09:21:01;;;;;;;12.43;7.50;;;;;;;5.74;100.00;99836.03;5018753;28;20040;-85
2021/12/19 09:23:27;;;;;;;9.02;5.40;;;;;;;5.71;100.00;99830.09;5051679;28;20378;-85
2021/12/19 09:25:53;;;;;;;8.35;5.25;;;;;;;5.71;100.00;99828.34;5051754;28;20112;-85
2021/12/19 09:28:18;;;;;;;8.00;4.05;;;;;;;5.62;100.00;99812.22;5051874;28;20238;-85
2021/12/19 09:30:45;;;;;;;5.80;3.85;;;;;;;5.66;100.00;99813.84;5051367;28;20064;-85
2021/12/19 09:33:10;;;;;;;4.97;3.45;;;;;;;5.68;100.00;99822.41;5051477;28;20714;-86
2021/12/19 09:35:36;;;;;;;7.18;4.07;;;;;;;5.57;100.00;99814.09;5034711;28;20072;-85
2021/12/19 09:38:05;;;;;;;12.43;7.95;;;;;;;5.70;100.00;99826.66;5050479;28;20040;-85
2021/12/19 09:40:36;;;;;;;9.13;6.13;;;;;;;5.59;100.00;99807.97;5054742;28;20040;-86
2021/12/19 09:43:08;;;;;;;11.05;5.20;;;;;;;5.71;100.00;99818.03;5054803;28;20082;-85
2021/12/19 09:45:35;;;;;;;7.75;4.18;;;;;;;5.63;100.00;99813.91;5071087;28;20219;-85
2021/12/19 09:48:01;;;;;;;6.00;3.53;;;;;;;5.54;100.00;99796.91;5086287;28;20043;-85
2021/12/19 09:50:27;;;;;;;13.75;8.80;;;;;;;5.71;100.00;99822.34;5090890;28;20063;-85
2021/12/19 09:52:53;;;;;;;11.65;7.20;;;;;;;5.67;100.00;99807.78;5091524;28;20035;-85
2021/12/19 09:55:21;;;;;;;9.98;6.70;;;;;;;5.72;100.00;99801.63;5086518;28;20498;-85
2021/12/19 09:57:48;;;;;;;11.25;6.63;;;;;;;5.83;100.00;99811.72;5071068;28;20024;-85
2021/12/19 10:00:15;;;;;;;9.98;6.38;;;;;;;5.84;100.00;99808.22;5071292;28;20029;-85
2021/12/19 10:02:41;;;;;;;9.70;6.03;;;;;;;5.85;100.00;99781.50;5070998;28;20063;-85
2021/12/19 10:05:31;;;;;;;10.93;6.93;;;;;;;5.87;100.00;99789.22;5071199;28;20033;-85
2021/12/19 10:08:00;;;;;;;5.72;3.50;;;;;;;5.84;100.00;99776.38;5071357;28;20028;-85
2021/12/19 10:10:58;;;;;;;6.07;4.20;;;;;;;5.96;100.00;99792.44;5070933;28;20127;-85
2021/12/19 10:13:34;;;;;;;4.88;3.10;;;;;;;5.94;100.00;99764.91;5090995;28;20089;-84
2021/12/19 10:16:01;;;;;;;12.13;6.97;;;;;;;6.00;100.00;99783.72;5074295;28;20040;-85
2021/12/19 10:18:27;;;;;;;6.32;3.90;;;;;;;5.93;100.00;99764.09;5090035;28;20039;-85
2021/12/19 10:20:59;;;;;;;9.77;5.75;;;;;;;6.02;100.00;99765.56;5074242;28;20036;-86
2021/12/19 10:23:32;;;;;;;5.63;4.18;;;;;;;6.07;100.00;99765.44;5090908;28;20032;-83
2021/12/19 10:26:10;;;;;;;6.28;4.88;;;;;;;5.84;100.00;99737.59;5091125;28;20498;-85
2021/12/19 10:28:56;;;;;;;8.27;5.50;;;;;;;5.85;100.00;99727.22;5080092;28;20044;-84
2021/12/19 10:31:32;;;;;;;9.77;4.30;;;;;;;5.98;100.00;99740.69;5083154;28;20047;-85
2021/12/19 10:33:57;;;;;;;8.27;5.63;;;;;;;6.05;100.00;99752.56;5067080;28;20439;-85
2021/12/19 10:36:24;;;;;;;14.85;8.82;;;;;;;5.98;100.00;99732.94;5081904;28;20050;-84
2021/12/19 10:38:59;;;;;;;9.20;6.00;;;;;;;6.03;100.00;99736.28;5090914;28;20194;-85
2021/12/19 10:41:33;;;;;;;11.38;5.57;;;;;;;5.88;100.00;99708.19;5048501;28;20552;-84
2021/12/19 10:44:05;;;;;;;11.32;7.07;;;;;;;5.90;100.00;99717.63;5043546;28;20042;-84
2021/12/19 10:46:42;;;;;;;8.32;5.22;;;;;;;5.89;100.00;99713.31;5037655;28;20120;-84
2021/12/19 10:49:41;;;;;;;4.13;3.17;;;;;;;5.99;100.00;99732.06;5038129;28;20021;-84
2021/12/19 10:52:07;;;;;;;6.78;5.13;;;;;;;5.99;100.00;99727.75;5007478;28;20058;-85
2021/12/19 10:54:35;;;;;;;9.05;6.30;;;;;;;6.02;100.00;99724.22;4993793;28;20038;-86
2021/12/19 10:57:13;;;;;;;7.75;5.65;;;;;;;5.91;100.00;99708.13;5012769;28;20045;-85
2021/12/19 10:59:44;;;;;;;11.60;6.18;;;;;;;6.03;100.00;99714.75;5029995;28;20037;-85
2021/12/19 11:02:13;;;;;;;6.70;4.63;;;;;;;6.00;100.00;99708.75;5030188;28;20057;-84
2021/12/19 11:04:39;;;;;;;10.93;5.80;;;;;;;6.04;100.00;99706.09;5029856;28;20120;-85
2021/12/19 11:07:04;;;;;;;7.63;5.10;;;;;;;6.05;100.00;99697.44;5013413;28;20124;-84
2021/12/19 11:09:34;;;;;;;18.65;10.65;;;;;;;6.03;100.00;99697.50;5029762;28;20088;-85
2021/12/19 11:12:01;;;;;;;12.82;7.80;;;;;;;5.97;100.00;99682.97;5013159;28;20042;-84
2021/12/19 11:14:39;;;;;;;8.50;5.68;;;;;;;6.04;100.00;99686.25;5003826;28;20038;-84
2021/12/19 11:17:11;;;;;;;11.90;7.75;;;;;;;5.89;100.00;99658.19;4959277;28;20112;-84
2021/12/19 11:19:39;;;;;;;9.07;4.90;;;;;;;6.01;100.00;99675.97;4942296;28;20046;-84
2021/12/19 11:22:05;;;;;;;9.18;5.53;;;;;;;5.91;100.00;99646.94;4960362;28;20047;-84
2021/12/19 11:24:32;;;;;;;9.63;5.35;;;;;;;6.01;100.00;99660.47;4979703;28;20030;-85
2021/12/19 11:27:00;;;;;;;7.95;5.53;;;;;;;6.03;100.00;99663.88;4961845;28;20039;-84
2021/12/19 11:29:26;;;;;;;9.15;5.72;;;;;;;5.92;100.00;99645.22;4962614;28;20039;-85
2021/12/19 11:32:00;;;;;;;7.28;4.75;;;;;;;5.90;100.00;99640.06;4979812;28;20423;-84
2021/12/19 11:34:37;;;;;;;7.25;5.25;;;;;;;5.98;100.00;99663.13;4978839;28;20039;-84
2021/12/19 11:37:05;;;;;;;7.03;5.15;;;;;;;5.98;100.00;99661.41;4978355;28;20121;-84
2021/12/19 11:39:35;;;;;;;6.55;4.85;;;;;;;6.00;100.00;99659.63;4987366;28;20035;-84
2021/12/19 11:42:04;;;;;;;5.47;3.00;;;;;;;5.88;100.00;99638.41;4977236;28;20074;-85
2021/12/19 11:44:46;;;;;;;5.30;3.47;;;;;;;5.97;100.00;99651.09;4987136;28;20050;-84
2021/12/19 11:47:15;;;;;;;5.03;4.13;;;;;;;5.92;100.00;99637.47;4987192;28;20034;-84
2021/12/19 11:49:44;;;;;;;5.40;4.35;;;;;;;5.96;100.00;99641.66;5038201;28;20037;-85
2021/12/19 11:52:26;;;;;;;8.77;5.00;;;;;;;5.87;100.00;99627.22;5020000;28;20033;-84
2021/12/19 11:55:14;;;;;;;6.72;4.32;;;;;;;6.02;100.00;99635.47;5035796;28;20044;-85
2021/12/19 11:58:01;;;;;;;5.32;4.00;;;;;;;5.85;100.00;99594.53;5056625;28;20029;-84
2021/12/19 12:00:32;;;;;;;5.50;4.07;;;;;;;5.95;100.00;99609.78;5030119;28;20536;-84
2021/12/19 12:03:35;;;;;;;6.20;3.58;;;;;;;6.02;100.00;99601.84;5027687;28;20046;-85
2021/12/19 12:06:09;;;;;;;11.35;6.15;;;;;;;5.96;100.00;99588.22;4958905;28;20039;-85
2021/12/19 12:08:36;;;;;;;7.03;4.70;;;;;;;6.08;100.00;99599.09;4957849;28;20046;-84
2021/12/19 12:11:04;;;;;;;10.43;6.65;;;;;;;5.85;100.00;99548.84;4959824;28;20059;-84
2021/12/19 12:13:38;;;;;;;8.63;4.30;;;;;;;6.06;100.00;99588.78;4959280;28;20043;-84
2021/12/19 12:16:14;;;;;;;5.72;3.70;;;;;;;6.10;100.00;99574.88;4958710;28;20090;-84
2021/12/19 12:18:42;;;;;;;6.10;4.38;;;;;;;6.08;100.00;99561.16;4957728;28;20035;-84
2021/12/19 12:23:56;;;;;;;8.68;5.20;;;;;;;6.16;100.00;99585.06;4958572;28;20028;-84
2021/12/19 12:26:50;;;;;;;6.63;4.70;;;;;;;6.18;100.00;99585.00;4965410;28;20030;-85
2021/12/19 12:29:16;;;;;;;5.68;4.07;;;;;;;6.14;100.00;99585.97;4941956;28;20039;-84
2021/12/19 12:31:46;;;;;;;7.03;5.25;;;;;;;6.15;100.00;99582.50;4959440;28;20039;-85
2021/12/19 12:34:14;;;;;;;10.57;5.80;;;;;;;6.03;100.00;99557.03;4959684;28;20036;-85
2021/12/19 12:36:41;;;;;;;8.90;5.03;;;;;;;6.17;100.00;99580.72;4960186;28;20066;-85
2021/12/19 12:39:16;;;;;;;7.15;4.95;;;;;;;6.06;100.00;99562.94;4977659;28;20072;-84
2021/12/19 12:41:58;;;;;;;7.00;4.43;;;;;;;6.10;100.00;99553.34;5017987;28;20041;-84
2021/12/19 12:44:24;;;;;;;4.50;3.47;;;;;;;6.05;100.00;99552.66;5017184;28;20444;-84
2021/12/19 12:46:51;;;;;;;5.47;4.00;;;;;;;6.16;100.00;99566.13;5040589;28;20032;-84